sensor_id;sensor_type;location;lat;lon;timestamp;P1;durP1;ratioP1;P2;durP2;ratioP2
19537;SDS011;9914;51.008;4.300;2022-10-16T00:01:20;1.70;;;1.40;;
19537;SDS011;9914;51.008;4.300;2022-10-16T00:03:48;4.03;;;1.50;;
19537;SDS011;9914;51.008;4.300;2022-10-16T00:06:15;2.20;;;1.50;;
19537;SDS011;9914;51.008;4.300;2022-10-16T00:08:42;3.27;;;1.33;;
19537;SDS011;9914;51.008;4.300;2022-10-16T00:11:12;1.97;;;1.87;;
19537;SDS011;9914;51.008;4.300;2022-10-16T00:13:41;1.67;;;1.53;;
19537;SDS011;9914;51.008;4.300;2022-10-16T00:16:08;1.70;;;1.20;;
19537;SDS011;9914;51.008;4.300;2022-10-16T00:18:35;2.60;;;1.50;;
19537;SDS011;9914;51.008;4.300;2022-10-16T00:21:06;1.73;;;1.50;;
19537;SDS011;9914;51.008;4.300;2022-10-16T00:23:33;1.20;;;1.10;;
19537;SDS011;9914;51.008;4.300;2022-10-16T00:26:00;1.30;;;1.20;;
19537;SDS011;9914;51.008;4.300;2022-10-16T00:28:29;3.33;;;1.50;;
19537;SDS011;9914;51.008;4.300;2022-10-16T00:30:55;2.13;;;1.53;;
19537;SDS011;9914;51.008;4.300;2022-10-16T00:33:21;1.40;;;1.30;;
19537;SDS011;9914;51.008;4.300;2022-10-16T00:35:47;1.40;;;1.30;;
19537;SDS011;9914;51.008;4.300;2022-10-16T00:38:13;2.77;;;1.67;;
19537;SDS011;9914;51.008;4.300;2022-10-16T00:40:39;1.47;;;1.37;;
19537;SDS011;9914;51.008;4.300;2022-10-16T00:43:11;1.50;;;1.40;;
19537;SDS011;9914;51.008;4.300;2022-10-16T00:45:56;2.93;;;1.30;;
19537;SDS011;9914;51.008;4.300;2022-10-16T00:48:21;2.47;;;1.50;;
19537;SDS011;9914;51.008;4.300;2022-10-16T00:50:47;1.50;;;1.40;;
19537;SDS011;9914;51.008;4.300;2022-10-16T00:53:13;1.33;;;1.30;;
19537;SDS011;9914;51.008;4.300;2022-10-16T00:55:40;2.63;;;1.20;;
19537;SDS011;9914;51.008;4.300;2022-10-16T00:58:06;1.40;;;1.30;;
19537;SDS011;9914;51.008;4.300;2022-10-16T01:00:32;1.80;;;1.50;;
19537;SDS011;9914;51.008;4.300;2022-10-16T01:02:58;1.70;;;1.60;;
19537;SDS011;9914;51.008;4.300;2022-10-16T01:05:31;3.23;;;1.77;;
19537;SDS011;9914;51.008;4.300;2022-10-16T01:08:14;2.40;;;1.60;;
19537;SDS011;9914;51.008;4.300;2022-10-16T01:10:59;1.67;;;1.50;;
19537;SDS011;9914;51.008;4.300;2022-10-16T01:13:42;3.77;;;1.60;;
19537;SDS011;9914;51.008;4.300;2022-10-16T01:16:15;1.57;;;1.47;;
19537;SDS011;9914;51.008;4.300;2022-10-16T01:18:52;3.73;;;1.50;;
19537;SDS011;9914;51.008;4.300;2022-10-16T01:21:23;1.83;;;1.70;;
19537;SDS011;9914;51.008;4.300;2022-10-16T01:32:38;2.13;;;1.53;;
19537;SDS011;9914;51.008;4.300;2022-10-16T01:40:28;1.83;;;1.50;;
19537;SDS011;9914;51.008;4.300;2022-10-16T01:43:03;1.73;;;1.50;;
19537;SDS011;9914;51.008;4.300;2022-10-16T01:45:33;2.77;;;1.70;;
19537;SDS011;9914;51.008;4.300;2022-10-16T01:48:01;2.07;;;1.80;;
19537;SDS011;9914;51.008;4.300;2022-10-16T01:50:31;2.20;;;1.90;;
19537;SDS011;9914;51.008;4.300;2022-10-16T01:53:00;2.70;;;1.73;;
19537;SDS011;9914;51.008;4.300;2022-10-16T01:55:29;3.13;;;2.13;;
19537;SDS011;9914;51.008;4.300;2022-10-16T01:57:59;2.07;;;1.70;;
19537;SDS011;9914;51.008;4.300;2022-10-16T02:00:26;1.73;;;1.60;;
19537;SDS011;9914;51.008;4.300;2022-10-16T02:02:53;3.57;;;1.80;;
19537;SDS011;9914;51.008;4.300;2022-10-16T02:07:55;3.00;;;2.20;;
19537;SDS011;9914;51.008;4.300;2022-10-16T02:10:21;3.73;;;1.90;;
19537;SDS011;9914;51.008;4.300;2022-10-16T02:12:57;2.23;;;1.77;;
19537;SDS011;9914;51.008;4.300;2022-10-16T02:15:28;3.47;;;1.80;;
19537;SDS011;9914;51.008;4.300;2022-10-16T02:17:54;2.00;;;1.90;;
19537;SDS011;9914;51.008;4.300;2022-10-16T02:20:20;2.20;;;2.00;;
19537;SDS011;9914;51.008;4.300;2022-10-16T02:22:50;4.03;;;2.30;;
19537;SDS011;9914;51.008;4.300;2022-10-16T02:25:18;2.13;;;1.90;;
19537;SDS011;9914;51.008;4.300;2022-10-16T02:32:57;2.47;;;2.00;;
19537;SDS011;9914;51.008;4.300;2022-10-16T02:35:25;2.83;;;1.80;;
19537;SDS011;9914;51.008;4.300;2022-10-16T02:37:52;4.67;;;2.10;;
19537;SDS011;9914;51.008;4.300;2022-10-16T02:40:20;3.00;;;2.03;;
19537;SDS011;9914;51.008;4.300;2022-10-16T02:42:49;3.67;;;2.07;;
19537;SDS011;9914;51.008;4.300;2022-10-16T02:45:17;5.13;;;2.23;;
19537;SDS011;9914;51.008;4.300;2022-10-16T02:47:43;4.30;;;2.40;;
19537;SDS011;9914;51.008;4.300;2022-10-16T02:50:09;3.10;;;2.00;;
19537;SDS011;9914;51.008;4.300;2022-10-16T02:52:35;2.87;;;2.43;;
19537;SDS011;9914;51.008;4.300;2022-10-16T02:55:00;2.43;;;2.17;;
19537;SDS011;9914;51.008;4.300;2022-10-16T02:57:26;2.93;;;2.30;;
19537;SDS011;9914;51.008;4.300;2022-10-16T02:59:52;2.30;;;2.10;;
19537;SDS011;9914;51.008;4.300;2022-10-16T03:02:18;3.80;;;2.43;;
19537;SDS011;9914;51.008;4.300;2022-10-16T03:04:43;4.03;;;2.17;;
19537;SDS011;9914;51.008;4.300;2022-10-16T03:07:09;4.60;;;2.00;;
19537;SDS011;9914;51.008;4.300;2022-10-16T03:09:35;2.73;;;2.17;;
19537;SDS011;9914;51.008;4.300;2022-10-16T03:12:00;2.60;;;2.00;;
19537;SDS011;9914;51.008;4.300;2022-10-16T03:14:26;5.27;;;2.10;;
19537;SDS011;9914;51.008;4.300;2022-10-16T03:16:51;5.37;;;2.57;;
19537;SDS011;9914;51.008;4.300;2022-10-16T03:19:17;2.33;;;2.13;;
19537;SDS011;9914;51.008;4.300;2022-10-16T03:21:43;3.87;;;2.53;;
19537;SDS011;9914;51.008;4.300;2022-10-16T03:24:09;3.63;;;2.53;;
19537;SDS011;9914;51.008;4.300;2022-10-16T03:26:35;2.83;;;2.43;;
19537;SDS011;9914;51.008;4.300;2022-10-16T03:29:01;2.43;;;2.23;;
19537;SDS011;9914;51.008;4.300;2022-10-16T03:31:28;4.27;;;2.33;;
19537;SDS011;9914;51.008;4.300;2022-10-16T03:33:54;2.40;;;2.17;;
19537;SDS011;9914;51.008;4.300;2022-10-16T03:36:19;3.07;;;2.70;;
19537;SDS011;9914;51.008;4.300;2022-10-16T03:38:45;4.43;;;2.73;;
19537;SDS011;9914;51.008;4.300;2022-10-16T03:41:10;2.60;;;2.40;;
19537;SDS011;9914;51.008;4.300;2022-10-16T03:43:36;2.23;;;2.03;;
19537;SDS011;9914;51.008;4.300;2022-10-16T03:46:02;2.40;;;2.20;;
19537;SDS011;9914;51.008;4.300;2022-10-16T03:48:27;6.03;;;2.80;;
19537;SDS011;9914;51.008;4.300;2022-10-16T03:50:53;3.50;;;2.40;;
19537;SDS011;9914;51.008;4.300;2022-10-16T03:53:19;2.30;;;2.10;;
19537;SDS011;9914;51.008;4.300;2022-10-16T03:55:45;3.80;;;2.87;;
19537;SDS011;9914;51.008;4.300;2022-10-16T03:58:11;3.50;;;2.70;;
19537;SDS011;9914;51.008;4.300;2022-10-16T04:00:40;3.90;;;2.83;;
19537;SDS011;9914;51.008;4.300;2022-10-16T04:03:07;4.00;;;2.60;;
19537;SDS011;9914;51.008;4.300;2022-10-16T04:05:33;3.67;;;2.40;;
19537;SDS011;9914;51.008;4.300;2022-10-16T04:07:58;2.57;;;2.20;;
19537;SDS011;9914;51.008;4.300;2022-10-16T04:10:24;2.37;;;2.17;;
19537;SDS011;9914;51.008;4.300;2022-10-16T04:12:50;2.53;;;2.33;;
19537;SDS011;9914;51.008;4.300;2022-10-16T04:15:15;3.93;;;2.50;;
19537;SDS011;9914;51.008;4.300;2022-10-16T04:17:41;4.93;;;2.73;;
19537;SDS011;9914;51.008;4.300;2022-10-16T04:20:06;5.57;;;2.47;;
19537;SDS011;9914;51.008;4.300;2022-10-16T04:22:32;3.33;;;2.70;;
19537;SDS011;9914;51.008;4.300;2022-10-16T04:24:58;4.67;;;2.67;;
19537;SDS011;9914;51.008;4.300;2022-10-16T04:27:23;3.43;;;2.30;;
19537;SDS011;9914;51.008;4.300;2022-10-16T04:29:49;2.27;;;2.00;;
19537;SDS011;9914;51.008;4.300;2022-10-16T04:32:15;5.27;;;2.40;;
19537;SDS011;9914;51.008;4.300;2022-10-16T04:34:40;4.27;;;2.73;;
19537;SDS011;9914;51.008;4.300;2022-10-16T04:37:06;3.13;;;2.63;;
19537;SDS011;9914;51.008;4.300;2022-10-16T04:39:32;3.30;;;2.80;;
19537;SDS011;9914;51.008;4.300;2022-10-16T04:41:57;3.53;;;2.80;;
19537;SDS011;9914;51.008;4.300;2022-10-16T04:44:23;3.43;;;2.73;;
19537;SDS011;9914;51.008;4.300;2022-10-16T04:46:51;3.23;;;2.80;;
19537;SDS011;9914;51.008;4.300;2022-10-16T04:49:17;4.80;;;3.13;;
19537;SDS011;9914;51.008;4.300;2022-10-16T04:51:42;2.80;;;2.57;;
19537;SDS011;9914;51.008;4.300;2022-10-16T04:54:08;3.23;;;2.93;;
19537;SDS011;9914;51.008;4.300;2022-10-16T04:56:34;4.20;;;2.40;;
19537;SDS011;9914;51.008;4.300;2022-10-16T04:59:07;4.60;;;4.30;;
19537;SDS011;9914;51.008;4.300;2022-10-16T05:01:34;5.17;;;2.40;;
19537;SDS011;9914;51.008;4.300;2022-10-16T05:03:59;5.33;;;2.90;;
19537;SDS011;9914;51.008;4.300;2022-10-16T05:06:25;10.47;;;2.90;;
19537;SDS011;9914;51.008;4.300;2022-10-16T05:08:51;4.30;;;2.27;;
19537;SDS011;9914;51.008;4.300;2022-10-16T05:11:17;3.40;;;2.13;;
19537;SDS011;9914;51.008;4.300;2022-10-16T05:13:42;3.57;;;2.40;;
19537;SDS011;9914;51.008;4.300;2022-10-16T05:16:08;5.23;;;2.50;;
19537;SDS011;9914;51.008;4.300;2022-10-16T05:18:33;4.87;;;4.57;;
19537;SDS011;9914;51.008;4.300;2022-10-16T05:20:59;4.83;;;2.50;;
19537;SDS011;9914;51.008;4.300;2022-10-16T05:23:24;2.53;;;2.33;;
19537;SDS011;9914;51.008;4.300;2022-10-16T05:25:56;3.20;;;2.30;;
19537;SDS011;9914;51.008;4.300;2022-10-16T05:28:23;10.83;;;2.57;;
19537;SDS011;9914;51.008;4.300;2022-10-16T05:30:49;2.83;;;2.60;;
19537;SDS011;9914;51.008;4.300;2022-10-16T05:33:15;2.53;;;2.30;;
19537;SDS011;9914;51.008;4.300;2022-10-16T05:35:41;5.03;;;2.37;;
19537;SDS011;9914;51.008;4.300;2022-10-16T05:38:07;3.70;;;2.40;;
19537;SDS011;9914;51.008;4.300;2022-10-16T05:40:33;3.90;;;2.80;;
19537;SDS011;9914;51.008;4.300;2022-10-16T05:42:58;3.07;;;2.40;;
19537;SDS011;9914;51.008;4.300;2022-10-16T05:45:24;2.47;;;2.27;;
19537;SDS011;9914;51.008;4.300;2022-10-16T05:47:49;4.83;;;2.67;;
19537;SDS011;9914;51.008;4.300;2022-10-16T05:50:16;2.60;;;2.40;;
19537;SDS011;9914;51.008;4.300;2022-10-16T05:52:41;3.10;;;2.70;;
19537;SDS011;9914;51.008;4.300;2022-10-16T05:55:07;3.53;;;2.50;;
19537;SDS011;9914;51.008;4.300;2022-10-16T05:57:33;3.10;;;2.70;;
19537;SDS011;9914;51.008;4.300;2022-10-16T05:59:58;4.93;;;3.00;;
19537;SDS011;9914;51.008;4.300;2022-10-16T06:02:24;3.27;;;2.97;;
19537;SDS011;9914;51.008;4.300;2022-10-16T06:04:51;3.17;;;2.57;;
19537;SDS011;9914;51.008;4.300;2022-10-16T06:07:18;3.40;;;2.53;;
19537;SDS011;9914;51.008;4.300;2022-10-16T06:09:47;2.63;;;2.33;;
19537;SDS011;9914;51.008;4.300;2022-10-16T06:12:13;3.43;;;3.10;;
19537;SDS011;9914;51.008;4.300;2022-10-16T06:14:39;2.93;;;2.73;;
19537;SDS011;9914;51.008;4.300;2022-10-16T06:17:04;4.37;;;2.50;;
19537;SDS011;9914;51.008;4.300;2022-10-16T06:19:30;3.10;;;2.80;;
19537;SDS011;9914;51.008;4.300;2022-10-16T06:21:56;4.37;;;3.97;;
19537;SDS011;9914;51.008;4.300;2022-10-16T06:24:23;4.03;;;2.63;;
19537;SDS011;9914;51.008;4.300;2022-10-16T06:26:48;3.93;;;3.00;;
19537;SDS011;9914;51.008;4.300;2022-10-16T06:29:14;4.87;;;2.80;;
19537;SDS011;9914;51.008;4.300;2022-10-16T06:31:40;4.63;;;3.17;;
19537;SDS011;9914;51.008;4.300;2022-10-16T06:34:05;6.97;;;2.90;;
19537;SDS011;9914;51.008;4.300;2022-10-16T06:36:35;4.37;;;3.13;;
19537;SDS011;9914;51.008;4.300;2022-10-16T06:39:01;6.40;;;2.87;;
19537;SDS011;9914;51.008;4.300;2022-10-16T06:41:27;2.63;;;2.43;;
19537;SDS011;9914;51.008;4.300;2022-10-16T06:43:53;2.60;;;2.40;;
19537;SDS011;9914;51.008;4.300;2022-10-16T06:46:19;3.43;;;2.83;;
19537;SDS011;9914;51.008;4.300;2022-10-16T06:48:46;3.57;;;2.57;;
19537;SDS011;9914;51.008;4.300;2022-10-16T06:51:13;3.40;;;2.70;;
19537;SDS011;9914;51.008;4.300;2022-10-16T06:53:41;4.57;;;3.33;;
19537;SDS011;9914;51.008;4.300;2022-10-16T06:56:12;3.20;;;2.87;;
19537;SDS011;9914;51.008;4.300;2022-10-16T06:58:40;2.70;;;2.50;;
19537;SDS011;9914;51.008;4.300;2022-10-16T07:01:06;4.27;;;3.50;;
19537;SDS011;9914;51.008;4.300;2022-10-16T07:03:32;3.57;;;3.00;;
19537;SDS011;9914;51.008;4.300;2022-10-16T07:06:01;5.77;;;5.27;;
19537;SDS011;9914;51.008;4.300;2022-10-16T07:08:30;4.27;;;2.47;;
19537;SDS011;9914;51.008;4.300;2022-10-16T07:11:00;5.37;;;2.93;;
19537;SDS011;9914;51.008;4.300;2022-10-16T07:13:26;5.50;;;3.00;;
19537;SDS011;9914;51.008;4.300;2022-10-16T07:15:52;4.63;;;4.00;;
19537;SDS011;9914;51.008;4.300;2022-10-16T07:18:17;3.13;;;2.40;;
19537;SDS011;9914;51.008;4.300;2022-10-16T07:20:43;5.50;;;2.80;;
19537;SDS011;9914;51.008;4.300;2022-10-16T07:23:09;3.63;;;2.70;;
19537;SDS011;9914;51.008;4.300;2022-10-16T07:25:34;5.33;;;2.83;;
19537;SDS011;9914;51.008;4.300;2022-10-16T07:28:00;7.70;;;7.23;;
19537;SDS011;9914;51.008;4.300;2022-10-16T07:30:25;5.10;;;2.47;;
19537;SDS011;9914;51.008;4.300;2022-10-16T07:32:51;2.87;;;2.33;;
19537;SDS011;9914;51.008;4.300;2022-10-16T07:35:17;2.40;;;2.20;;
19537;SDS011;9914;51.008;4.300;2022-10-16T07:37:45;5.13;;;2.73;;
19537;SDS011;9914;51.008;4.300;2022-10-16T07:40:11;5.03;;;2.60;;
19537;SDS011;9914;51.008;4.300;2022-10-16T07:42:37;5.43;;;1.97;;
19537;SDS011;9914;51.008;4.300;2022-10-16T07:45:03;2.77;;;2.53;;
19537;SDS011;9914;51.008;4.300;2022-10-16T07:47:29;3.97;;;2.30;;
19537;SDS011;9914;51.008;4.300;2022-10-16T07:49:55;3.27;;;2.37;;
19537;SDS011;9914;51.008;4.300;2022-10-16T07:52:20;4.50;;;2.37;;
19537;SDS011;9914;51.008;4.300;2022-10-16T07:54:46;4.60;;;2.33;;
19537;SDS011;9914;51.008;4.300;2022-10-16T07:57:11;3.00;;;2.80;;
19537;SDS011;9914;51.008;4.300;2022-10-16T07:59:43;3.73;;;2.10;;
19537;SDS011;9914;51.008;4.300;2022-10-16T08:02:09;2.30;;;2.10;;
19537;SDS011;9914;51.008;4.300;2022-10-16T08:04:34;5.13;;;2.60;;
19537;SDS011;9914;51.008;4.300;2022-10-16T08:07:00;2.40;;;2.20;;
19537;SDS011;9914;51.008;4.300;2022-10-16T08:09:25;4.80;;;2.97;;
19537;SDS011;9914;51.008;4.300;2022-10-16T08:11:51;2.63;;;1.77;;
19537;SDS011;9914;51.008;4.300;2022-10-16T08:14:17;3.97;;;2.63;;
19537;SDS011;9914;51.008;4.300;2022-10-16T08:16:43;3.60;;;2.20;;
19537;SDS011;9914;51.008;4.300;2022-10-16T08:19:08;5.70;;;2.10;;
19537;SDS011;9914;51.008;4.300;2022-10-16T08:21:34;3.90;;;2.13;;
19537;SDS011;9914;51.008;4.300;2022-10-16T08:23:59;2.97;;;1.83;;
19537;SDS011;9914;51.008;4.300;2022-10-16T08:26:25;2.87;;;1.90;;
19537;SDS011;9914;51.008;4.300;2022-10-16T08:28:51;6.53;;;2.20;;
19537;SDS011;9914;51.008;4.300;2022-10-16T08:31:17;2.57;;;2.13;;
19537;SDS011;9914;51.008;4.300;2022-10-16T08:33:43;2.97;;;1.93;;
19537;SDS011;9914;51.008;4.300;2022-10-16T08:36:11;3.10;;;2.40;;
19537;SDS011;9914;51.008;4.300;2022-10-16T08:38:38;4.27;;;1.90;;
19537;SDS011;9914;51.008;4.300;2022-10-16T08:44:00;2.63;;;1.90;;
19537;SDS011;9914;51.008;4.300;2022-10-16T08:49:32;6.80;;;1.87;;
19537;SDS011;9914;51.008;4.300;2022-10-16T08:51:58;2.80;;;1.80;;
19537;SDS011;9914;51.008;4.300;2022-10-16T08:57:24;5.07;;;2.30;;
19537;SDS011;9914;51.008;4.300;2022-10-16T08:59:53;3.23;;;2.17;;
19537;SDS011;9914;51.008;4.300;2022-10-16T09:02:32;4.20;;;1.97;;
19537;SDS011;9914;51.008;4.300;2022-10-16T09:10:19;6.07;;;2.20;;
19537;SDS011;9914;51.008;4.300;2022-10-16T09:15:34;2.63;;;1.80;;
19537;SDS011;9914;51.008;4.300;2022-10-16T09:23:26;5.10;;;1.87;;
19537;SDS011;9914;51.008;4.300;2022-10-16T09:25:55;5.03;;;1.83;;
19537;SDS011;9914;51.008;4.300;2022-10-16T09:28:24;3.30;;;2.47;;
19537;SDS011;9914;51.008;4.300;2022-10-16T09:30:50;3.60;;;1.70;;
19537;SDS011;9914;51.008;4.300;2022-10-16T09:33:17;3.57;;;2.07;;
19537;SDS011;9914;51.008;4.300;2022-10-16T09:35:53;4.53;;;2.00;;
19537;SDS011;9914;51.008;4.300;2022-10-16T09:38:22;3.33;;;2.13;;
19537;SDS011;9914;51.008;4.300;2022-10-16T09:40:59;3.13;;;1.50;;
19537;SDS011;9914;51.008;4.300;2022-10-16T09:43:28;5.87;;;2.00;;
19537;SDS011;9914;51.008;4.300;2022-10-16T09:46:06;2.70;;;1.67;;
19537;SDS011;9914;51.008;4.300;2022-10-16T09:51:04;3.97;;;1.80;;
19537;SDS011;9914;51.008;4.300;2022-10-16T09:53:41;5.33;;;1.90;;
19537;SDS011;9914;51.008;4.300;2022-10-16T09:56:10;5.07;;;1.90;;
19537;SDS011;9914;51.008;4.300;2022-10-16T09:58:41;3.73;;;2.00;;
19537;SDS011;9914;51.008;4.300;2022-10-16T10:01:12;5.33;;;1.80;;
19537;SDS011;9914;51.008;4.300;2022-10-16T10:03:40;3.97;;;1.90;;
19537;SDS011;9914;51.008;4.300;2022-10-16T10:08:56;3.07;;;2.57;;
19537;SDS011;9914;51.008;4.300;2022-10-16T10:14:34;2.57;;;2.03;;
19537;SDS011;9914;51.008;4.300;2022-10-16T10:19:41;5.90;;;2.20;;
19537;SDS011;9914;51.008;4.300;2022-10-16T10:22:18;4.00;;;2.07;;
19537;SDS011;9914;51.008;4.300;2022-10-16T10:30:27;4.27;;;2.10;;
19537;SDS011;9914;51.008;4.300;2022-10-16T10:38:50;5.87;;;2.07;;
19537;SDS011;9914;51.008;4.300;2022-10-16T10:49:26;5.90;;;1.87;;
19537;SDS011;9914;51.008;4.300;2022-10-16T10:54:32;2.90;;;2.00;;
19537;SDS011;9914;51.008;4.300;2022-10-16T11:02:54;5.77;;;1.90;;
19537;SDS011;9914;51.008;4.300;2022-10-16T11:08:17;5.27;;;2.17;;
19537;SDS011;9914;51.008;4.300;2022-10-16T11:10:54;3.23;;;1.90;;
19537;SDS011;9914;51.008;4.300;2022-10-16T11:16:20;2.93;;;1.63;;
19537;SDS011;9914;51.008;4.300;2022-10-16T11:21:36;6.27;;;2.50;;
19537;SDS011;9914;51.008;4.300;2022-10-16T11:24:34;5.90;;;2.20;;
19537;SDS011;9914;51.008;4.300;2022-10-16T11:27:01;3.60;;;2.20;;
19537;SDS011;9914;51.008;4.300;2022-10-16T11:29:32;3.73;;;1.97;;
19537;SDS011;9914;51.008;4.300;2022-10-16T11:32:05;1.90;;;1.50;;
19537;SDS011;9914;51.008;4.300;2022-10-16T11:34:44;4.07;;;2.17;;
19537;SDS011;9914;51.008;4.300;2022-10-16T11:37:36;5.30;;;2.17;;
19537;SDS011;9914;51.008;4.300;2022-10-16T11:40:15;6.37;;;1.87;;
19537;SDS011;9914;51.008;4.300;2022-10-16T11:45:48;3.67;;;2.70;;
19537;SDS011;9914;51.008;4.300;2022-10-16T11:48:37;3.73;;;1.90;;
19537;SDS011;9914;51.008;4.300;2022-10-16T11:51:11;5.23;;;2.10;;
19537;SDS011;9914;51.008;4.300;2022-10-16T11:56:13;2.33;;;1.50;;
19537;SDS011;9914;51.008;4.300;2022-10-16T12:01:46;4.90;;;1.93;;
19537;SDS011;9914;51.008;4.300;2022-10-16T12:07:32;3.50;;;1.97;;
19537;SDS011;9914;51.008;4.300;2022-10-16T12:09:40;3.70;;;1.70;;
19537;SDS011;9914;51.008;4.300;2022-10-16T12:12:25;3.23;;;1.77;;
19537;SDS011;9914;51.008;4.300;2022-10-16T12:15:27;2.23;;;1.50;;
19537;SDS011;9914;51.008;4.300;2022-10-16T12:17:55;3.07;;;2.20;;
19537;SDS011;9914;51.008;4.300;2022-10-16T12:22:48;2.70;;;1.60;;
19537;SDS011;9914;51.008;4.300;2022-10-16T12:25:22;3.60;;;1.70;;
19537;SDS011;9914;51.008;4.300;2022-10-16T12:28:04;2.80;;;1.53;;
19537;SDS011;9914;51.008;4.300;2022-10-16T12:30:53;2.53;;;1.97;;
19537;SDS011;9914;51.008;4.300;2022-10-16T12:33:22;2.27;;;1.40;;
19537;SDS011;9914;51.008;4.300;2022-10-16T12:35:50;3.40;;;1.60;;
19537;SDS011;9914;51.008;4.300;2022-10-16T12:40:44;1.53;;;1.37;;
19537;SDS011;9914;51.008;4.300;2022-10-16T12:46:01;2.07;;;1.30;;
19537;SDS011;9914;51.008;4.300;2022-10-16T12:48:32;3.23;;;2.03;;
19537;SDS011;9914;51.008;4.300;2022-10-16T12:51:44;5.07;;;2.00;;
19537;SDS011;9914;51.008;4.300;2022-10-16T12:54:04;4.03;;;1.63;;
19537;SDS011;9914;51.008;4.300;2022-10-16T13:02:11;5.27;;;1.50;;
19537;SDS011;9914;51.008;4.300;2022-10-16T13:19:30;3.47;;;1.43;;
19537;SDS011;9914;51.008;4.300;2022-10-16T13:23:13;2.67;;;1.53;;
19537;SDS011;9914;51.008;4.300;2022-10-16T13:25:19;1.97;;;1.27;;
19537;SDS011;9914;51.008;4.300;2022-10-16T13:28:11;3.20;;;1.80;;
19537;SDS011;9914;51.008;4.300;2022-10-16T13:30:42;4.07;;;1.60;;
19537;SDS011;9914;51.008;4.300;2022-10-16T13:33:16;1.43;;;1.30;;
19537;SDS011;9914;51.008;4.300;2022-10-16T13:35:56;2.77;;;1.63;;
19537;SDS011;9914;51.008;4.300;2022-10-16T13:38:24;3.13;;;1.20;;
19537;SDS011;9914;51.008;4.300;2022-10-16T13:40:53;4.07;;;1.70;;
19537;SDS011;9914;51.008;4.300;2022-10-16T13:43:20;4.27;;;1.60;;
19537;SDS011;9914;51.008;4.300;2022-10-16T13:45:52;2.00;;;1.30;;
19537;SDS011;9914;51.008;4.300;2022-10-16T13:48:19;4.53;;;1.83;;
19537;SDS011;9914;51.008;4.300;2022-10-16T13:50:44;2.03;;;1.50;;
19537;SDS011;9914;51.008;4.300;2022-10-16T13:53:14;2.03;;;1.37;;
19537;SDS011;9914;51.008;4.300;2022-10-16T13:55:39;5.33;;;1.87;;
19537;SDS011;9914;51.008;4.300;2022-10-16T13:58:11;1.80;;;1.20;;
19537;SDS011;9914;51.008;4.300;2022-10-16T14:00:39;2.63;;;1.30;;
19537;SDS011;9914;51.008;4.300;2022-10-16T14:03:15;1.50;;;1.20;;
19537;SDS011;9914;51.008;4.300;2022-10-16T14:05:54;1.87;;;1.27;;
19537;SDS011;9914;51.008;4.300;2022-10-16T14:08:23;2.30;;;1.40;;
19537;SDS011;9914;51.008;4.300;2022-10-16T14:10:51;2.53;;;1.63;;
19537;SDS011;9914;51.008;4.300;2022-10-16T14:13:43;2.47;;;1.27;;
19537;SDS011;9914;51.008;4.300;2022-10-16T14:16:15;1.10;;;1.00;;
19537;SDS011;9914;51.008;4.300;2022-10-16T14:18:44;1.73;;;1.27;;
19537;SDS011;9914;51.008;4.300;2022-10-16T14:21:14;3.77;;;1.23;;
19537;SDS011;9914;51.008;4.300;2022-10-16T14:23:42;2.20;;;1.37;;
19537;SDS011;9914;51.008;4.300;2022-10-16T14:28:33;1.97;;;1.47;;
19537;SDS011;9914;51.008;4.300;2022-10-16T14:31:00;3.93;;;1.70;;
19537;SDS011;9914;51.008;4.300;2022-10-16T14:38:34;4.30;;;1.63;;
19537;SDS011;9914;51.008;4.300;2022-10-16T14:41:02;1.60;;;1.40;;
19537;SDS011;9914;51.008;4.300;2022-10-16T14:45:59;3.10;;;1.60;;
19537;SDS011;9914;51.008;4.300;2022-10-16T14:48:26;2.67;;;2.00;;
19537;SDS011;9914;51.008;4.300;2022-10-16T14:50:52;2.33;;;1.40;;
19537;SDS011;9914;51.008;4.300;2022-10-16T14:53:18;6.77;;;1.93;;
19537;SDS011;9914;51.008;4.300;2022-10-16T14:55:43;3.30;;;1.80;;
19537;SDS011;9914;51.008;4.300;2022-10-16T14:58:19;2.67;;;1.50;;
19537;SDS011;9914;51.008;4.300;2022-10-16T15:00:47;2.23;;;1.80;;
19537;SDS011;9914;51.008;4.300;2022-10-16T15:03:13;2.03;;;1.27;;
19537;SDS011;9914;51.008;4.300;2022-10-16T15:05:39;6.37;;;1.40;;
19537;SDS011;9914;51.008;4.300;2022-10-16T15:08:05;3.07;;;1.60;;
19537;SDS011;9914;51.008;4.300;2022-10-16T15:10:33;2.07;;;1.70;;
19537;SDS011;9914;51.008;4.300;2022-10-16T15:13:03;3.20;;;1.83;;
19537;SDS011;9914;51.008;4.300;2022-10-16T15:15:47;5.13;;;1.73;;
19537;SDS011;9914;51.008;4.300;2022-10-16T15:18:14;3.70;;;1.53;;
19537;SDS011;9914;51.008;4.300;2022-10-16T15:20:45;3.90;;;1.70;;
19537;SDS011;9914;51.008;4.300;2022-10-16T15:23:14;6.07;;;1.80;;
19537;SDS011;9914;51.008;4.300;2022-10-16T15:25:51;4.70;;;1.80;;
19537;SDS011;9914;51.008;4.300;2022-10-16T15:28:18;5.50;;;1.80;;
19537;SDS011;9914;51.008;4.300;2022-10-16T15:30:45;2.43;;;1.67;;
19537;SDS011;9914;51.008;4.300;2022-10-16T15:33:12;3.37;;;1.60;;
19537;SDS011;9914;51.008;4.300;2022-10-16T15:35:40;2.23;;;2.03;;
19537;SDS011;9914;51.008;4.300;2022-10-16T15:38:07;4.30;;;1.83;;
19537;SDS011;9914;51.008;4.300;2022-10-16T15:40:37;3.23;;;2.13;;
19537;SDS011;9914;51.008;4.300;2022-10-16T15:43:02;4.87;;;2.50;;
19537;SDS011;9914;51.008;4.300;2022-10-16T15:45:28;7.30;;;2.83;;
19537;SDS011;9914;51.008;4.300;2022-10-16T15:47:53;5.23;;;2.73;;
19537;SDS011;9914;51.008;4.300;2022-10-16T15:50:19;3.77;;;2.30;;
19537;SDS011;9914;51.008;4.300;2022-10-16T15:52:45;7.63;;;2.77;;
19537;SDS011;9914;51.008;4.300;2022-10-16T15:55:11;2.70;;;2.27;;
19537;SDS011;9914;51.008;4.300;2022-10-16T15:57:38;2.60;;;2.33;;
19537;SDS011;9914;51.008;4.300;2022-10-16T16:00:07;3.73;;;2.67;;
19537;SDS011;9914;51.008;4.300;2022-10-16T16:02:34;2.90;;;2.43;;
19537;SDS011;9914;51.008;4.300;2022-10-16T16:05:00;4.93;;;2.57;;
19537;SDS011;9914;51.008;4.300;2022-10-16T16:07:26;2.50;;;1.60;;
19537;SDS011;9914;51.008;4.300;2022-10-16T16:09:52;2.50;;;2.00;;
19537;SDS011;9914;51.008;4.300;2022-10-16T16:12:18;3.20;;;2.40;;
19537;SDS011;9914;51.008;4.300;2022-10-16T16:14:44;4.77;;;2.40;;
19537;SDS011;9914;51.008;4.300;2022-10-16T16:17:11;3.10;;;2.53;;
19537;SDS011;9914;51.008;4.300;2022-10-16T16:19:36;3.53;;;2.53;;
19537;SDS011;9914;51.008;4.300;2022-10-16T16:22:02;7.37;;;2.40;;
19537;SDS011;9914;51.008;4.300;2022-10-16T16:24:28;4.07;;;2.60;;
19537;SDS011;9914;51.008;4.300;2022-10-16T16:26:53;3.17;;;2.50;;
19537;SDS011;9914;51.008;4.300;2022-10-16T16:29:19;6.10;;;4.13;;
19537;SDS011;9914;51.008;4.300;2022-10-16T16:31:44;4.37;;;3.20;;
19537;SDS011;9914;51.008;4.300;2022-10-16T16:34:12;4.57;;;2.93;;
19537;SDS011;9914;51.008;4.300;2022-10-16T16:36:38;4.97;;;2.93;;
19537;SDS011;9914;51.008;4.300;2022-10-16T16:39:04;3.27;;;2.60;;
19537;SDS011;9914;51.008;4.300;2022-10-16T16:41:31;3.53;;;2.80;;
19537;SDS011;9914;51.008;4.300;2022-10-16T16:44:01;8.40;;;4.20;;
19537;SDS011;9914;51.008;4.300;2022-10-16T16:46:28;5.20;;;4.47;;
19537;SDS011;9914;51.008;4.300;2022-10-16T16:48:53;15.67;;;5.07;;
19537;SDS011;9914;51.008;4.300;2022-10-16T16:51:20;9.10;;;4.00;;
19537;SDS011;9914;51.008;4.300;2022-10-16T16:53:50;6.70;;;3.80;;
19537;SDS011;9914;51.008;4.300;2022-10-16T16:56:18;7.33;;;3.83;;
19537;SDS011;9914;51.008;4.300;2022-10-16T16:58:51;4.57;;;3.30;;
19537;SDS011;9914;51.008;4.300;2022-10-16T17:01:18;5.40;;;3.57;;
19537;SDS011;9914;51.008;4.300;2022-10-16T17:03:45;7.30;;;3.70;;
19537;SDS011;9914;51.008;4.300;2022-10-16T17:06:14;4.17;;;3.07;;
19537;SDS011;9914;51.008;4.300;2022-10-16T17:08:40;3.80;;;2.60;;
19537;SDS011;9914;51.008;4.300;2022-10-16T17:11:06;2.73;;;2.37;;
19537;SDS011;9914;51.008;4.300;2022-10-16T17:13:37;5.37;;;3.00;;
19537;SDS011;9914;51.008;4.300;2022-10-16T17:16:03;4.97;;;3.00;;
19537;SDS011;9914;51.008;4.300;2022-10-16T17:18:30;3.83;;;2.30;;
19537;SDS011;9914;51.008;4.300;2022-10-16T17:21:00;5.80;;;2.97;;
19537;SDS011;9914;51.008;4.300;2022-10-16T17:23:26;5.07;;;2.60;;
19537;SDS011;9914;51.008;4.300;2022-10-16T17:25:52;3.67;;;2.70;;
19537;SDS011;9914;51.008;4.300;2022-10-16T17:28:18;4.90;;;3.10;;
19537;SDS011;9914;51.008;4.300;2022-10-16T17:30:44;3.37;;;3.07;;